Tiempo atmosférico en la estación meteorológica de Salamanca, Salamanca (775 m.)



Fecha
DESCASC
Temp. máxima en grados centígrados (hora)
DESCASC
Temp. mínima en grados centígrados (hora)
DESCASC
Temp. media en grados centígrados
DESCASC
Racha de viento máxima en m/sg (hora)
DESCASC
Velocidad máxima media en intervalos de 10 minutos(hora)
DESCASC
Precipitaciones diarias en mm
DESCASC
Precipitaciones de 00:00 a 06:00 en mm
DESCASC
Precipitaciones de 06:00 a 12:00 en mm
DESCASC
Precipitaciones de 12:00 a 18:00 en mm
DESCASC
Precipitaciones de 18:00 a 24:00 en mm
DESCASC
23-06-2019 28.5 (17:10) 15 (07:20) 21.8 11.67 (12:30) 6.39 (12:00) 0 0 0 0 0
22-06-2019 29.7 (16:30) 12.5 (06:40) 21.1 11.11 (12:30) 4.72 (16:20) 0 0 0 0 0
21-06-2019 25.9 (19:00) 11.2 (07:30) 18.5 6.39 (11:30) 2.78 (18:10) 0 0 0 0 0
20-06-2019 25.9 (14:10) 15.8 (00:00) 20.8 9.17 (17:00) 4.17 (16:50) 0 0 0 0 0
19-06-2019 23.4 (19:00) 15 (00:00) 19.2 8.61 (18:50) 3.61 (17:30) 0 0 0 0 0
18-06-2019 25.3 (18:10) 15.3 (00:00) 20.3 15.83 (16:00) 7.22 (16:00) 0 0 0 0 0
17-06-2019 28.9 (15:40) 12 (00:00) 20.4 10.83 (15:50) 5.83 (15:50) 0 0 0 0 0
16-06-2019 28.2 (17:00) 9.6 (00:00) 18.9 8.06 (19:00) 3.33 (18:20) 0 0 0 0 0
15-06-2019 24.5 (19:10) 8.2 (00:00) 16.3 5.56 (19:40) 2.5 (03:20) 0 0 0 0 0
14-06-2019 21.4 (16:50) 9.4 (00:00) 15.4 11.39 (15:10) 5 (18:40) 0 0 0 0 0
13-06-2019 25.3 (16:30) 8.5 (00:00) 16.9 10.83 (14:30) 4.72 (14:30) 0 0 0 0 0
12-06-2019 23.7 (18:50) 7.2 (00:00) 15.5 8.06 (19:10) 3.33 (19:00) 0 0 0 0 0
11-06-2019 20.8 (18:40) 12.1 (00:00) 16.4 8.61 (17:10) 3.89 (02:00) 0 0 0 0 0
10-06-2019 24.5 (18:00) 9.6 (00:00) 17.1 7.78 (23:30) 3.61 (23:40) 0 0 0 0 0
09-06-2019 23.5 (17:30) 10.1 (00:00) 16.8 8.89 (17:00) 4.44 (20:40) 0 0 0 0 0
08-06-2019 26.5 (18:00) 6.9 (00:00) 16.7 7.78 (18:40) 3.61 (18:20) 0 0 0 0 0
07-06-2019 18.7 (18:40) 7.9 (00:00) 13.3 10 (01:30) 4.17 (01:30) 0.4 0.4 0 0 0
06-06-2019 20.5 (16:30) 6.9 (00:00) 13.7 17.78 (20:50) 9.17 (18:40) 1.8 0 0 0 1.8
05-06-2019 19 (17:20) 8 (00:00) 13.5 10.83 (15:50) 5 (09:20) 0 0 0 0 0
04-06-2019 23.9 (15:30) 13.1 (00:00) 18.5 11.11 (17:30) 5.83 (17:30) 0 0 0 0 0
03-06-2019 31.1 (17:50) 17.1 (00:00) 24.1 10.56 (17:50) 5.28 (20:10) 0 0 0 0 0
02-06-2019 32.4 (16:00) 16.2 (00:00) 24.3 9.44 (15:40) 4.17 (17:00) 0 0 0 0 0
01-06-2019 33.9 (16:30) 12.9 (00:00) 23.4 8.06 (19:00) 3.33 (19:40) 0 0 0 0 0
31-05-2019 32.5 (18:40) 12 (00:00) 22.3 5.56 (12:00) 2.5 (12:30) 0 0 0 0 0
30-05-2019 30.6 (18:20) 10.7 (00:00) 20.7 9.17 (17:00) 3.33 (14:40) 0 0 0 0 0
29-05-2019 25.7 (17:10) 8 (00:00) 16.9 9.44 (11:00) 3.89 (11:00) 0 0 0 0 0
28-05-2019 25 (18:10) 9.6 (00:00) 17.3 8.89 (23:30) 3.89 (08:20) 0 0 0 0 0
27-05-2019 27.6 (18:40) 13 (00:00) 20.3 6.67 (23:59) 3.06 (23:40) 0 0 0 0 0
26-05-2019 27.3 (18:30) 9.1 (00:00) 18.2 8.06 (19:20) 3.61 (00:20) 0 0 0 0 0
25-05-2019 23.4 (18:50) 8.3 (00:00) 15.8 9.17 (13:20) 3.89 (12:40) 0 0 0 0 0

Gráficas

Temp. máximas Temp. mínimas Temp. medias Precipitaciones Rachas de viento máximas Velocidades máximas media en intervalos de 10 minutos

Datos horarios

Fecha y hora oficial Temperatura (ºC) Velocidad del viento (km/h) Dirección del viento Racha (km/h) Dirección de racha Precipitación (mm) Presión (hPa) Tendencia (hPa) Humedad (%)
2019-06-23 23:00:00 22.5 0 Calma 9 Oeste 0 925.1 0.8 41
2019-06-23 22:00:00 23.4 6 Oeste 13 Oeste 0 924.6 0.3 38
2019-06-23 21:00:00 24.4 8 Oeste 15 Oeste 0 924.5 0.3 36
2019-06-23 20:00:00 25.5 5 Oeste 13 Oeste 0 924.3 -0.3 34
2019-06-23 19:00:00 26 8 Oeste 30 Sudoeste 0 924.3 -0.6 33
2019-06-23 18:00:00 27.1 11 Sudoeste 30 Sudoeste 0 924.2 -1 29
2019-06-23 17:00:00 27.8 14 Sudoeste 31 Sudoeste 0 924.6 -0.8 28
2019-06-23 16:00:00 27.1 10 Sudoeste 39 Sur 0 924.9 -0.5 29
2019-06-23 15:00:00 26.7 14 Sur 39 Sudoeste 0 925.2 -0.2 29
2019-06-23 14:00:00 26.8 14 Sur 39 Sur 0 925.4 0.2 29
2019-06-23 13:00:00 26.8 17 Sudoeste 42 Sur 0 925.4 -0.1 29
2019-06-23 12:00:00 25 23 Sur 41 Sur 0 925.4 0.1 31
2019-06-23 11:00:00 24.1 12 Sur 33 Sudoeste 0 925.2 -0.1 34
2019-06-23 10:00:00 21.6 6 Este 14 Este 0 925.5 0.1 44
2019-06-23 09:00:00 17.1 4 Este 8 Este 0 925.3 -0.1 56
2019-06-23 08:00:00 15.2 5 Este 9 Este 0 925.3 -0.1 56
2019-06-23 07:00:00 15.3 4 Este 15 Oeste 0 925.4 0.5 55
2019-06-23 06:00:00 16.3 10 Oeste 21 Oeste 0 925.4 0.9 52
2019-06-23 05:00:00 17.4 13 Oeste 19 Oeste 0 925.4 0.5 50
2019-06-23 04:00:00 18.2 5 Oeste 9 Oeste 0 924.9 -0.1 44
2019-06-23 03:00:00 18.5 3 Sur 6 Este 0 924.5 -0.8 44
2019-06-23 02:00:00 19.2 3 Sudeste 6 Sur 0 924.9 -0.2 40
2019-06-23 01:00:00 20.2 0 Calma 9 Sudoeste 0 925 0.6 35
2019-06-23 00:00:00 22.1 5 Sudoeste 12 Oeste 0 925.3 0.7 30
2019-06-22 23:00:00 23.5 6 Sudoeste 12 Sur 0 925.1 0.8 30
2019-06-22 22:00:00 24.9 8 Sur 28 Sur 0 924.4 0.2 28
2019-06-22 21:00:00 26.7 13 Sur 28 Sur 0 924.6 0.2 28
2019-06-22 20:00:00 27.8 12 Sur 31 Sudeste 0 924.3 -0.7 27
2019-06-22 19:00:00 28.9 15 Sur 34 Sur 0 924.2 -0.9 28
2019-06-22 18:00:00 29.3 11 Sur 31 Sur 0 924.4 -1.1 28
2019-06-22 17:00:00 28.6 13 Sur 34 Sudoeste 0 925 -1 28
2019-06-22 16:00:00 29.3 11 Sur 35 Sur 0 925.1 -1.4 28
2019-06-22 15:00:00 28.9 10 Sur 36 Sudoeste 0 925.5 -1 30
2019-06-22 14:00:00 27.7 13 Sur 33 Sur 0 926 -1.2 30
2019-06-22 13:00:00 27.7 13 Sur 40 Sur 0 926.5 -1.4 30
2019-06-22 12:00:00 25.5 9 Nordeste 18 Nordeste 0 926.5 -1.3 42
2019-06-22 11:00:00 22.3 5 Este 11 Este 0 927.2 -0.4 50
2019-06-22 10:00:00 19.3 3 Este 12 Nordeste 0 927.9 0.4 57
2019-06-22 09:00:00 16 4 Este 14 Nordeste 0 927.8 0.2 69
2019-06-22 08:00:00 13.1 3 Este 8 Este 0 927.6 -0.3 75
2019-06-22 07:00:00 12.6 3 Este 7 Este 0 927.5 -0.5 76
2019-06-22 06:00:00 13 0 Calma 5 Este 0 927.6 -0.5 77
2019-06-22 05:00:00 13.4 3 Este 8 Nordeste 0 927.9 -0.7 72
2019-06-22 04:00:00 13.7 3 Este 11 Nordeste 0 928 -1 69
2019-06-22 03:00:00 14.6 6 Nordeste 13 Nordeste 0 928.1 -0.9 63
2019-06-22 02:00:00 15.8 7 Nordeste 15 Nordeste 0 928.6 -0.1 57
2019-06-22 01:00:00 17 4 Este 11 Este 0 929 0.6 52
2019-06-22 00:00:00 18 4 Este 12 Este 0 929 1 48
2019-06-21 23:00:00 19.6 4 Este 13 Nordeste 0 928.7 0.9 42
2019-06-21 22:00:00 22 3 Nordeste 12 Nordeste 0 928.4 0.6 37
2019-06-21 21:00:00 22.9 2 Norte 13 Noroeste 0 928 0.1 35
2019-06-21 20:00:00 23.5 4 Norte 15 Noroeste 0 927.8 -0.2 35
2019-06-21 19:00:00 24.9 2 Noroeste 18 Oeste 0 927.8 -0.7 33
2019-06-21 18:00:00 25.5 7 Oeste 18 Oeste 0 927.9 -0.8 34
2019-06-21 17:00:00 24.4 6 Oeste 20 Oeste 0 928 -1.3 37
2019-06-21 16:00:00 22.6 2 Norte 22 Norte 0 928.5 -0.9 42
2019-06-21 15:00:00 21.5 5 Norte 22 Noroeste 0 928.7 -1.1 44
2019-06-21 14:00:00 21.3 5 Nordeste 19 Este 0 929.3 -0.7 47
2019-06-21 13:00:00 20.9 8 Este 20 Este 0 929.4 -0.7 51
2019-06-21 12:00:00 18.6 6 Nordeste 23 Este 0 929.8 0.2 61
2019-06-21 11:00:00 16.3 8 Nordeste 20 Nordeste 0 930 1.2 70
2019-06-21 10:00:00 14.2 3 Norte 16 Noroeste 0 930.1 2.2 85
2019-06-21 09:00:00 12.8 2 Norte 13 Nordeste 0 929.6 2 93
2019-06-21 08:00:00 12 4 Nordeste 17 Noroeste 0 928.8 1.3 97
2019-06-21 07:00:00 12.1 4 Noroeste 14 Noroeste 0 927.9 0.2 95
2019-06-21 06:00:00 13.5 3 Nordeste 13 Nordeste 0 927.6 -0.5 89
2019-06-21 05:00:00 13.6 5 Nordeste 10 Este 0 927.5 -0.5 89
2019-06-21 04:00:00 14.2 5 Nordeste 13 Nordeste 0 927.7 -0.5 88
2019-06-21 03:00:00 15 6 Nordeste 14 Nordeste 0 928.1 0.3 87
2019-06-21 02:00:00 15.4 6 Nordeste 19 Norte 0 928 1.1 86
2019-06-21 01:00:00 15.4 6 Este 19 Nordeste 0 928.2 2.5 87
2019-06-21 00:00:00 15.9 6 Nordeste 29 Nordeste 0 927.8 2.7 82
2019-06-20 23:00:00 17.5 6 Noroeste 17 Noroeste 0 926.9 2.4 69
2019-06-20 22:00:00 18.5 6 Oeste 26 Sudoeste 0 925.7 0.9 67
2019-06-20 21:00:00 20 9 Oeste 19 Sudoeste 0 925.1 0.2 69
2019-06-20 20:00:00 21 6 Oeste 14 Noroeste 0 924.5 -0.5 62
2019-06-20 19:00:00 20.7 5 Oeste 21 Oeste 0 924.8 0.2 67
2019-06-20 18:00:00 19.4 12 Oeste 27 Oeste 0 924.9 -0.1 73
2019-06-20 17:00:00 19.8 14 Sudoeste 33 Oeste 0 925 -0.7 64
2019-06-20 16:00:00 24.4 7 Sudoeste 22 Sudoeste 0 924.6 -1.7 45
2019-06-20 15:00:00 25 4 Sudoeste 20 Sudeste 0 925 -1.5 44
2019-06-20 14:00:00 25.8 3 Sudeste 16 Este 0 925.7 -1.1 46
2019-06-20 13:00:00 22.9 2 Sudeste 18 Nordeste 0 926.3 -1 52
2019-06-20 12:00:00 22.4 5 Nordeste 17 Norte 0 926.5 -0.7 54
2019-06-20 11:00:00 20.4 6 Este 14 Nordeste 0 926.8 -0.4 58
2019-06-20 10:00:00 19.2 4 Este 11 Este 0 927.3 0.3 64
2019-06-20 09:00:00 17.1 4 Este 8 Este 0 927.2 0.2 69
2019-06-20 08:00:00 16.4 2 Nordeste 13 Norte 0 927.2 0.2 71
2019-06-20 07:00:00 15.9 3 Noroeste 6 Noroeste 0 927 -0.3 72
2019-06-20 06:00:00 16.1 4 Oeste 13 Oeste 0 927 -0.6 71
2019-06-20 05:00:00 16.5 8 Oeste 13 Oeste 0 927 -0.7 70
2019-06-20 04:00:00 16.6 4 Oeste 12 Oeste 0 927.3 -0.2 70
2019-06-20 03:00:00 16.8 4 Oeste 10 Sudoeste 0 927.6 0.3 70
2019-06-20 02:00:00 17.1 3 Sudoeste 10 Oeste 0 927.7 0.4 70
2019-06-20 01:00:00 17.7 5 Oeste 12 Sudoeste 0 927.5 0.7 70
2019-06-20 00:00:00 18.2 6 Oeste 13 Sudoeste 0 927.3 0.8 66
2019-06-19 23:00:00 19.4 6 Oeste 16 Oeste 0 927.3 1 63
2019-06-19 22:00:00 20.3 8 Oeste 26 Sudoeste 0 926.8 0.6 59
2019-06-19 21:00:00 21.7 12 Oeste 24 Sudoeste 0 926.5 0 53
2019-06-19 20:00:00 22.8 10 Oeste 28 Sudoeste 0 926.3 -0.4 50
2019-06-19 19:00:00 23.4 11 Sur 31 Sudoeste 0 926.2 -0.7 50
2019-06-19 18:00:00 22.8 12 Sudoeste 27 Sudoeste 0 926.5 -0.9 53
2019-06-19 17:00:00 22.5 10 Sudoeste 29 Oeste 0 926.7 -0.9 54
2019-06-19 16:00:00 21.7 10 Sur 27 Oeste 0 926.9 -0.6 55
2019-06-19 15:00:00 21.4 12 Sudoeste 26 Oeste 0 927.4 0.1 56
2019-06-19 14:00:00 21 9 Oeste 24 Oeste 0 927.6 0.2 57
2019-06-19 13:00:00 22 10 Sudoeste 27 Sudoeste 0 927.5 0.1 56
2019-06-19 12:00:00 20.6 7 Sudoeste 22 Sudoeste 0 927.3 0.2 59
2019-06-19 11:00:00 19.8 10 Sur 30 Sudoeste 0 927.4 0.8 64
2019-06-19 10:00:00 18.1 12 Sudoeste 26 Sudoeste 0 927.4 1.3 72
2019-06-19 09:00:00 17.1 6 Sudoeste 23 Sur 0 927.1 0.8 81
2019-06-19 08:00:00 15.8 5 Sur 13 Sur 0 926.6 0.3 85
2019-06-19 07:00:00 15.3 3 Sudeste 13 Sudoeste 0 926.1 0.2 85
2019-06-19 06:00:00 15.3 8 Sur 20 Sudoeste 0 926.3 0.4 84
2019-06-19 05:00:00 15.1 5 Oeste 16 Sur 0 926.3 0.2 79
2019-06-19 04:00:00 15.5 4 Sur 15 Sudoeste 0 925.9 -0.2 76
2019-06-19 03:00:00 16.4 5 Sur 18 Sudoeste 0 925.9 -0.4 73
2019-06-19 02:00:00 17.4 6 Sudoeste 19 Oeste 0 926.1 0.1 71
2019-06-19 01:00:00 18.2 9 Sudoeste 24 Sudoeste 0 926.1 0.6 65
2019-06-19 00:00:00 19.1 13 Sudoeste 27 Sudoeste 0 926.3 0.9 61
2019-06-18 23:00:00 19.3 6 Sur 14 Sur 0 926 0.8 61
2019-06-18 22:00:00 20.4 9 Sur 28 Sur 0 925.5 0.4 58
2019-06-18 21:00:00 21.3 13 Sur 36 Sur 0 925.4 0.3 54
2019-06-18 20:00:00 22.8 15 Sur 39 Sudoeste 0 925.2 0 50
2019-06-18 19:00:00 23.5 14 Sur 42 Sudoeste 0 925.1 0.1 51
2019-06-18 18:00:00 25.1 14 Sur 46 Sudoeste 0 925.1 -0.1 46
2019-06-18 17:00:00 22.9 17 Sur 52 Sudoeste 0 925.2 -0.2 49
2019-06-18 16:00:00 23.6 26 Sur 57 Sur 0 925 -0.6 45
2019-06-18 15:00:00 24.4 17 Sur 41 Sudeste 0 925.2 -0.2 42
2019-06-18 14:00:00 23.9 19 Sur 41 Sur 0 925.4 -0.1 42
2019-06-18 13:00:00 22.7 20 Sur 47 Sur 0 925.6 0.2 39
2019-06-18 12:00:00 22.2 17 Sur 40 Sudeste 0 925.4 0.1 35
2019-06-18 11:00:00 21.5 19 Sur 35 Sur 0 925.5 0.2 39
2019-06-18 10:00:00 19.8 16 Sur 30 Sur 0 925.4 0.5 48
2019-06-18 09:00:00 18.1 12 Sur 25 Sudoeste 0 925.3 0.8 52
2019-06-18 08:00:00 16.2 9 Sur 21 Sur 0 925.3 1 57
2019-06-18 07:00:00 15.9 8 Sudoeste 18 Sudoeste 0 924.9 0.4 55
2019-06-18 06:00:00 15.6 5 Sudoeste 10 Sudoeste 0 924.5 -0.5 52
2019-06-18 05:00:00 15.6 2 Sur 8 Sur 0 924.3 -1.3 60
2019-06-18 04:00:00 16.8 3 Este 8 Este 0 924.5 -1.2 53
2019-06-18 03:00:00 18.6 5 Nordeste 9 Nordeste 0 925 -0.7 45
2019-06-18 02:00:00 19.4 4 Nordeste 13 Nordeste 0 925.6 -0.8 43
2019-06-18 01:00:00 20.2 4 Este 14 Este 0 925.7 -0.3 42
2019-06-18 00:00:00 21.4 4 Este 21 Noroeste 0 925.7 -0.2 38
2019-06-17 23:00:00 22.7 6 Oeste 14 Sudoeste 0 926.4 0.6 34
2019-06-17 22:00:00 23.8 7 Oeste 12 Oeste 0 926 0.1 28
2019-06-17 21:00:00 24.9 6 Sudoeste 21 Sudoeste 0 925.9 -0.4 27
2019-06-17 20:00:00 25.6 9 Sudoeste 23 Sudoeste 0 925.8 -0.6 27
2019-06-17 19:00:00 26 15 Sudoeste 28 Sudoeste 0 925.9 -0.7 27
2019-06-17 18:00:00 26.5 13 Sudoeste 30 Sudoeste 0 926.3 -0.5 30
2019-06-17 17:00:00 27.2 15 Sur 31 Sudoeste 0 926.4 -1 28
2019-06-17 16:00:00 27.8 17 Sur 39 Sudoeste 0 926.6 -1.4 27
2019-06-17 15:00:00 27.7 14 Sudoeste 36 Sur 0 926.8 -1.6 28
2019-06-17 14:00:00 27.5 13 Sur 32 Sudeste 0 927.4 -1.3 28
2019-06-17 13:00:00 26.3 14 Sur 36 Sur 0 928 -1 31
2019-06-17 12:00:00 25.5 13 Sur 28 Sur 0 928.4 -0.8 36
2019-06-17 11:00:00 23.7 2 Sudeste 9 Sur 0 928.7 -0.5 46
2019-06-17 10:00:00 19.4 4 Este 9 Este 0 929 0 65
2019-06-17 09:00:00 15.2 4 Este 7 Este 0 929.2 0.1 77
2019-06-17 08:00:00 12.4 3 Este 6 Este 0 929.2 0.2 84
2019-06-17 07:00:00 12.2 2 Este 7 Este 0 929 -0.2 83
2019-06-17 06:00:00 13.2 0 Calma 5 Este 0 929.1 -0.1 80
2019-06-17 05:00:00 14.3 0 Calma 6 Sur 0 929 -0.1 75
2019-06-17 04:00:00 15.5 3 Sur 10 Sudoeste 0 929.2 -0.1 73
2019-06-17 03:00:00 16.5 3 Oeste 14 Oeste 0 929.2 -0.1 69
2019-06-17 02:00:00 17.5 6 Oeste 14 Sudoeste 0 929.1 0.1 56
2019-06-17 01:00:00 17.4 3 Oeste 8 Noroeste 0 929.3 0.8 40
2019-06-17 00:00:00 18.2 0 Calma 5 Este 0 929.3 1.1 40
2019-06-16 23:00:00 20.5 0 Calma 8 Oeste 0 929 0.8 35
2019-06-16 22:00:00 23.1 4 Sudoeste 13 Sur 0 928.5 0.5 30
2019-06-16 21:00:00 24.8 6 Sudoeste 17 Sudoeste 0 928.2 0 27
2019-06-16 20:00:00 26.2 7 Sur 20 Sudoeste 0 928.2 -0.3 27
2019-06-16 19:00:00 27.1 10 Sur 29 Sudeste 0 928 -0.7 26
2019-06-16 18:00:00 27.9 12 Sur 26 Sur 0 928.2 -0.7 26
2019-06-16 17:00:00 28.1 10 Sur 28 Sur 0 928.5 -1 27
2019-06-16 16:00:00 27.7 11 Sur 21 Sudoeste 0 928.7 -1.3 28
2019-06-16 15:00:00 25.9 6 Sudoeste 27 Sur 0 928.9 -1.6 28
2019-06-16 14:00:00 27 5 Este 19 Sur 0 929.5 -1.3 30
2019-06-16 13:00:00 23.9 3 Noroeste 12 Sudeste 0 930 -1 35
2019-06-16 12:00:00 23.6 3 Este 12 Este 0 930.5 -0.5 38
2019-06-16 11:00:00 20 4 Este 13 Este 0 930.8 0.2 46
2019-06-16 10:00:00 17 3 Este 10 Este 0 931 0.8 54
2019-06-16 09:00:00 13.4 4 Este 7 Este 0 931 0.8 66
2019-06-16 08:00:00 10.2 0 Calma 5 Este 0 930.6 0.2 71
2019-06-16 07:00:00 9.8 0 Calma 4 Este 0 930.2 -0.4 68
2019-06-16 06:00:00 10.3 0 Calma 4 Este 0 930.2 -0.6 66
2019-06-16 05:00:00 10.9 2 Sudoeste 5 Oeste 0 930.4 -0.9 61
2019-06-16 04:00:00 11.8 2 Sudoeste 4 Sudoeste 0 930.6 -0.8 57
2019-06-16 03:00:00 12.7 0 Calma 4 Sudoeste 0 930.8 -0.5 54
2019-06-16 02:00:00 14 0 Calma 6 Este 0 931.3 0.3 51
2019-06-16 01:00:00 15.8 0 Calma 5 Oeste 0 931.4 0.8 50
2019-06-16 00:00:00 17.5 4 Noroeste 10 Oeste 0 931.3 1.1 44
2019-06-15 23:00:00 19.3 3 Oeste 12 Oeste 0 931 1 39
2019-06-15 22:00:00 20.7 4 Oeste 14 Oeste 0 930.6 0.5 37
2019-06-15 21:00:00 21.8 5 Oeste 14 Sudoeste 0 930.2 -0.2 35
2019-06-15 20:00:00 22.8 8 Oeste 20 Oeste 0 930 -0.8 33
2019-06-15 19:00:00 24.3 4 Noroeste 17 Oeste 0 930.1 -1 33
2019-06-15 18:00:00 23.7 0 Calma 17 Oeste 0 930.4 -1.2 34
2019-06-15 17:00:00 22.6 2 Sudoeste 18 Oeste 0 930.8 -1.1 34
2019-06-15 16:00:00 22.5 6 Sudeste 19 Sudeste 0 931.1 -1 38
2019-06-15 15:00:00 20.4 3 Oeste 18 Sudoeste 0 931.6 -0.6 42
2019-06-15 14:00:00 18.3 3 Noroeste 18 Oeste 0 931.9 -0.4 45
2019-06-15 13:00:00 17.9 5 Oeste 16 Sudoeste 0 932.1 -0.1 49
2019-06-15 12:00:00 16.2 4 Sudoeste 16 Sur 0 932.2 0.3 54
2019-06-15 11:00:00 13.9 2 Noroeste 13 Oeste 0 932.3 0.9 63
2019-06-15 10:00:00 13.1 6 Sudoeste 15 Oeste 0 932.2 1.1 73
2019-06-15 09:00:00 10.7 6 Oeste 13 Oeste 0 931.9 1.1 84
2019-06-15 08:00:00 8.8 5 Sur 12 Sudoeste 0 931.4 0.9 90
2019-06-15 07:00:00 8.3 5 Oeste 15 Sudoeste 0 931.1 0.4 89
2019-06-15 06:00:00 8.9 7 Sudoeste 15 Sudoeste 0 930.8 0.3 86
2019-06-15 05:00:00 9.4 4 Oeste 16 Sudoeste 0 930.5 0.4 82
2019-06-15 04:00:00 10 6 Sudoeste 18 Sudoeste 0 930.7 0.9 77
2019-06-15 03:00:00 10.6 3 Sudoeste 15 Oeste 0 930.5 1.1 74
2019-06-15 02:00:00 11.5 4 Sudoeste 15 Sudoeste 0 930.1 1.2 69
2019-06-15 01:00:00 12.3 6 Oeste 14 Oeste 0 929.8 2 65
2019-06-15 00:00:00 13.1 8 Oeste 24 Sudoeste 0 929.4 2.3 62
2019-06-14 23:00:00 13.9 13 Oeste 26 Sudoeste 0 928.9 2.8 58
2019-06-14 22:00:00 15 12 Oeste 33 Oeste 0 927.8 2.4 53
2019-06-14 21:00:00 16.8 15 Oeste 33 Oeste 0 927.1 2.1 46
2019-06-14 20:00:00 18.2 15 Oeste 34 Oeste 0 926.1 1.1 43
2019-06-14 19:00:00 19.1 15 Oeste 33 Oeste 0 925.4 0.4 41
2019-06-14 18:00:00 19.8 12 Oeste 35 Sudoeste 0 925 0.2 41
2019-06-14 17:00:00 20.6 16 Oeste 38 Sudoeste 0 925 0.2 41
2019-06-14 16:00:00 20.8 16 Sudoeste 41 Sur 0 925 0.4 41
2019-06-14 15:00:00 20.1 16 Sudoeste 38 Sudoeste 0 924.8 0.4 41
2019-06-14 14:00:00 19.8 13 Oeste 39 Sudoeste 0 924.8 0.8 45
2019-06-14 13:00:00 18.7 14 Oeste 32 Sudoeste 0 924.6 0.6 48
2019-06-14 12:00:00 17.7 14 Sudoeste 34 Oeste 0 924.4 0.7 50
2019-06-14 11:00:00 16.6 9 Oeste 19 Noroeste 0 924 0.4 57
2019-06-14 10:00:00 14.7 5 Oeste 10 Oeste 0 924 0.4 65
2019-06-14 09:00:00 12 2 Sudoeste 12 Sudoeste 0 923.7 0.6 74
2019-06-14 08:00:00 9.9 5 Sudoeste 9 Sudoeste 0 923.6 0.3 80
2019-06-14 07:00:00 9.5 4 Sudoeste 15 Sudoeste 0 923.6 0.1 79
2019-06-14 06:00:00 10 5 Oeste 13 Oeste 0 923.1 -0.2 76
2019-06-14 05:00:00 10.9 7 Oeste 12 Oeste 0 923.3 -0.4 70
2019-06-14 04:00:00 11.2 5 Sudoeste 8 Oeste 0 923.5 -0.2 66
2019-06-14 03:00:00 12.2 3 Sudoeste 6 Sudoeste 0 923.3 -0.3 60
2019-06-14 02:00:00 13.5 2 Sudoeste 9 Oeste 0 923.7 0.8 56
2019-06-14 01:00:00 14.5 4 Sudoeste 12 Sudoeste 0 923.7 1.5 51
2019-06-14 00:00:00 16.2 8 Oeste 14 Oeste 0 923.6 2.2 45
2019-06-13 23:00:00 18.1 6 Oeste 17 Oeste 0 922.9 2.1 42
2019-06-13 22:00:00 19.8 8 Oeste 20 Oeste 0 922.2 1.5 40
2019-06-13 21:00:00 21.2 9 Oeste 23 Oeste 0 921.4 0.7 36
2019-06-13 20:00:00 22.9 7 Oeste 26 Oeste 0 920.8 -0.1 33
2019-06-13 19:00:00 24.4 13 Sur 35 Sur 0 920.7 -0.4 26
2019-06-13 18:00:00 24.8 12 Sur 31 Sudoeste 0 920.7 -0.7 27
2019-06-13 17:00:00 24.8 11 Sur 38 Sudoeste 0 920.9 -0.8 25
2019-06-13 16:00:00 24.5 10 Sudoeste 35 Sur 0 921.1 -1.1 24
2019-06-13 15:00:00 23.5 13 Sur 39 Sur 0 921.4 -1.3 26
2019-06-13 14:00:00 22.4 4 Sur 22 Sudoeste 0 921.7 -1.3 33
2019-06-13 13:00:00 20.3 6 Sudoeste 21 Sur 0 922.2 -0.6 41
2019-06-13 12:00:00 17.8 0 Calma 12 Este 0 922.7 0.1 50
2019-06-13 11:00:00 15.7 3 Noroeste 12 Sudoeste 0 923 0.7 59
2019-06-13 10:00:00 12.8 5 Oeste 15 Oeste 0 922.8 0.6 66
2019-06-13 09:00:00 10.5 7 Oeste 13 Noroeste 0 922.6 0.5 73
2019-06-13 08:00:00 9.1 8 Oeste 14 Sudoeste 0 922.3 0.3 75
2019-06-13 07:00:00 8.5 4 Oeste 11 Oeste 0 922.2 0.1 70
2019-06-13 06:00:00 9.1 6 Oeste 15 Oeste 0 922.1 0 63
2019-06-13 05:00:00 10.1 8 Oeste 16 Oeste 0 922 -0.5 57
2019-06-13 04:00:00 10 5 Oeste 10 Oeste 0 922.1 -0.6 54
2019-06-13 03:00:00 11.1 4 Sudoeste 8 Sudoeste 0 922.1 -0.5 47
2019-06-13 02:00:00 12.9 2 Sudoeste 7 Sudoeste 0 922.5 0 44
2019-06-13 01:00:00 14.6 3 Oeste 18 Noroeste 0 922.7 0.5 39
2019-06-13 00:00:00 16.3 4 Noroeste 18 Noroeste 0 922.6 0.8 36
2019-06-12 23:00:00 17.5 4 Noroeste 14 Oeste 0 922.5 0.9 33
2019-06-12 22:00:00 18.9 6 Oeste 22 Oeste 0 922.2 0.4 32
2019-06-12 21:00:00 20.4 10 Oeste 21 Oeste 0 921.8 -0.5 31
2019-06-12 20:00:00 21.8 8 Oeste 29 Oeste 0 921.6 -1.1 29
2019-06-12 19:00:00 22.8 12 Oeste 27 Oeste 0 921.8 -1.5 29
2019-06-12 18:00:00 22.9 10 Oeste 24 Sudoeste 0 922.3 -1.8 30
2019-06-12 17:00:00 22.4 11 Oeste 25 Sudoeste 0 922.7 -2.5 31
2019-06-12 16:00:00 22 9 Oeste 21 Oeste 0 923.3 -2.6 33
2019-06-12 15:00:00 20.1 4 Sur 23 Sur 0 924.1 -2.2 36
2019-06-12 14:00:00 19.6 4 Sudeste 22 Sur 0 925.2 -1.5 40
2019-06-12 13:00:00 16.7 0 Calma 16 Este 0 925.9 -1.1 45
2019-06-12 12:00:00 16.4 6 Sudeste 18 Este 0 926.3 -0.7 48
2019-06-12 11:00:00 14.4 8 Este 22 Este 0 926.7 0 51
2019-06-12 10:00:00 13 7 Nordeste 22 Norte 0 927 0.3 56
2019-06-12 09:00:00 10.3 8 Nordeste 18 Este 0 927 0.5 65
2019-06-12 08:00:00 7.8 4 Este 16 Norte 0 926.7 -0.2 70
2019-06-12 07:00:00 7.8 5 Nordeste 14 Nordeste 0 926.7 -0.4 69
2019-06-12 06:00:00 7.7 4 Este 10 Nordeste 0 926.5 -0.7 68
2019-06-12 05:00:00 8.5 2 Este 9 Este 0 926.9 -0.3 65
2019-06-12 04:00:00 9.3 4 Nordeste 10 Nordeste 0 927.1 -0.2 61
2019-06-12 03:00:00 9.9 4 Este 13 Nordeste 0 927.2 0.2 57
2019-06-12 02:00:00 11.3 6 Nordeste 19 Nordeste 0 927.2 0.2 53
2019-06-12 01:00:00 12.5 8 Nordeste 24 Nordeste 0 927.3 0.8 48
2019-06-12 00:00:00 14 10 Nordeste 25 Nordeste 0 927 0.5 44
2019-06-11 23:00:00 15.7 7 Nordeste 17 Nordeste 0 927 0.8 38
2019-06-11 22:00:00 17 7 Nordeste 17 Nordeste 0 926.5 0.2 35
2019-06-11 21:00:00 18.1 5 Norte 26 Nordeste 0 926.5 0.2 33
2019-06-11 20:00:00 19.2 8 Nordeste 23 Norte 0 926.2 0 30
2019-06-11 19:00:00 20.2 6 Norte 21 Noroeste 0 926.3 -0.4 31
2019-06-11 18:00:00 20.3 8 Norte 31 Norte 0 926.3 -0.5 30
2019-06-11 17:00:00 19.5 8 Norte 29 Nordeste 0 926.2 -0.9 31
2019-06-11 16:00:00 18.5 10 Noroeste 27 Noroeste 0 926.7 -0.4 32
2019-06-11 15:00:00 18.3 8 Noroeste 28 Este 0 926.8 0.1 36
2019-06-11 14:00:00 17.1 9 Noroeste 26 Noroeste 0 927.1 0.3 40
2019-06-11 13:00:00 16.6 8 Noroeste 28 Noroeste 0 927.1 0.2 45
2019-06-11 12:00:00 15.4 6 Norte 22 Noroeste 0 926.7 -0.6 51
2019-06-11 11:00:00 14.6 5 Nordeste 24 Norte 0 926.8 0.7 56
2019-06-11 10:00:00 12.7 8 Noroeste 22 Noroeste 0 926.9 1.1 66
2019-06-11 09:00:00 12.2 4 Noroeste 22 Nordeste 0 927.3 1.6 67
2019-06-11 08:00:00 12.3 7 Nordeste 17 Nordeste 0 926.1 0 66
2019-06-11 07:00:00 12.5 4 Nordeste 16 Noroeste 0 925.8 -0.5 65
2019-06-11 06:00:00 12.9 4 Nordeste 15 Nordeste 0 925.7 -0.8 65
2019-06-11 05:00:00 13.1 6 Nordeste 13 Nordeste 0 926.1 -0.5 63
2019-06-11 04:00:00 13.6 4 Oeste 19 Oeste 0 926.3 -0.6 58
2019-06-11 03:00:00 14.2 8 Oeste 25 Oeste 0 926.5 -0.3 57
2019-06-11 02:00:00 15.1 14 Oeste 26 Oeste 0 926.6 -0.2 54
2019-06-11 01:00:00 15.8 12 Oeste 29 Oeste 0 926.9 0.8 53
2019-06-11 00:00:00 16.8 13 Oeste 28 Oeste 0 926.8 0.7 51
2019-06-10 23:00:00 18.1 12 Oeste 24 Oeste 0 926.8 0.8 42
2019-06-10 22:00:00 19.6 9 Oeste 24 Oeste 0 926.1 -0.3 36
2019-06-10 21:00:00 20.4 12 Oeste 27 Sudoeste 0 926.1 -0.6 30
2019-06-10 20:00:00 21.7 13 Sudoeste 28 Sur 0 926 -1.3 29
2019-06-10 19:00:00 23.5 10 Sudoeste 25 Oeste 0 926.4 -1.5 30
2019-06-10 18:00:00 24 8 Oeste 24 Sudoeste 0 926.7 -1.9 32
2019-06-10 17:00:00 23.2 5 Noroeste 23 Sudoeste 0 927.3 -2.1 31
2019-06-10 16:00:00 22.2 2 Sudoeste 18 Noroeste 0 927.9 -2.3 36
2019-06-10 15:00:00 20.5 5 Noroeste 16 Sur 0 928.6 -1.8 39
2019-06-10 14:00:00 19.9 0 Calma 14 Noroeste 0 929.4 -1.3 43
2019-06-10 13:00:00 18.5 5 Noroeste 13 Oeste 0 930.2 -1 50
2019-06-10 12:00:00 17.2 3 Norte 13 Nordeste 0 930.4 -1.1 55
2019-06-10 11:00:00 16.5 5 Nordeste 15 Nordeste 0 930.7 0 61
2019-06-10 10:00:00 14.7 4 Este 11 Nordeste 0 931.2 1 71
2019-06-10 09:00:00 11.9 4 Este 11 Este 0 931.5 1.4 80
2019-06-10 08:00:00 10 4 Este 7 Este 0 930.7 0.3 85
2019-06-10 07:00:00 9.8 3 Nordeste 7 Nordeste 0 930.2 -0.6 84
2019-06-10 06:00:00 10.1 2 Este 10 Nordeste 0 930.1 -0.9 83
2019-06-10 05:00:00 10.9 0 Calma 9 Nordeste 0 930.4 -0.8 79
2019-06-10 04:00:00 11.8 4 Nordeste 12 Este 0 930.8 -0.2 76
2019-06-10 03:00:00 12.5 4 Nordeste 12 Oeste 0 931 0.4 70
2019-06-10 02:00:00 13.2 8 Oeste 16 Oeste 0 931.2 0.9 65
2019-06-10 01:00:00 14.3 7 Oeste 19 Oeste 0 931 1.7 58
2019-06-10 00:00:00 15.6 9 Oeste 19 Oeste 0 930.6 1.8 54
2019-06-09 23:00:00 16.8 10 Oeste 20 Oeste 0 930.3 1.9 51
2019-06-09 22:00:00 17.9 15 Oeste 32 Oeste 0 929.3 1.3 46
2019-06-09 21:00:00 19.5 14 Oeste 30 Oeste 0 928.8 0.7 42
2019-06-09 20:00:00 20.7 13 Oeste 31 Oeste 0 928.4 0.4 37
2019-06-09 19:00:00 22.2 14 Oeste 31 Sudoeste 0 928 -0.2 36
2019-06-09 18:00:00 22.4 13 Oeste 29 Sudoeste 0 928.1 -0.5 34
2019-06-09 17:00:00 22.9 13 Sudoeste 32 Sudoeste 0 928 -1 34
2019-06-09 16:00:00 22.7 13 Oeste 30 Sudoeste 0 928.2 -1.1 34
2019-06-09 15:00:00 22.2 11 Oeste 27 Sudoeste 0 928.6 -1 37
2019-06-09 14:00:00 21.2 11 Sudoeste 28 Sudoeste 0 929 -1 38
2019-06-09 13:00:00 20.2 4 Sudoeste 24 Sudoeste 0 929.3 -0.8 45
2019-06-09 12:00:00 17.6 7 Oeste 19 Sudoeste 0 929.6 -0.5 54
2019-06-09 11:00:00 16.5 8 Oeste 19 Sudoeste 0 930 0.3 60
2019-06-09 10:00:00 14 10 Oeste 21 Sudoeste 0 930.1 0.9 70
2019-06-09 09:00:00 11.7 9 Oeste 19 Oeste 0 930.1 1.3 79
2019-06-09 08:00:00 10.3 5 Oeste 14 Sudoeste 0 929.7 0.6 85
2019-06-09 07:00:00 10.2 8 Oeste 15 Oeste 0 929.2 -0.1 83
2019-06-09 06:00:00 11 7 Oeste 15 Sudoeste 0 928.8 -0.9 81
2019-06-09 05:00:00 11.6 5 Oeste 14 Oeste 0 929.1 -0.8 79
2019-06-09 04:00:00 12.7 4 Oeste 15 Sudoeste 0 929.3 -0.5 74
2019-06-09 03:00:00 13.4 7 Sudoeste 15 Sudoeste 0 929.7 0 65
2019-06-09 02:00:00 14.8 6 Oeste 12 Oeste 0 929.9 0.6 52
2019-06-09 01:00:00 15.4 5 Oeste 17 Oeste 0 929.8 1 50
2019-06-09 00:00:00 17 7 Oeste 15 Noroeste 0 929.7 1.5 44
2019-06-08 23:00:00 19 5 Oeste 17 Oeste 0 929.3 1.2 38
2019-06-08 22:00:00 20.5 8 Oeste 22 Oeste 0 928.8 0.8 34
2019-06-08 21:00:00 22.5 7 Oeste 18 Sudoeste 0 928.2 0.2 28
2019-06-08 20:00:00 23 9 Oeste 24 Sudoeste 0 928.1 -0.4 28
2019-06-08 19:00:00 24.6 10 Oeste 28 Sudoeste 0 928 -1.3 26
2019-06-08 18:00:00 26.5 7 Sudoeste 25 Sudoeste 0 928 -1.8 26
2019-06-08 17:00:00 25.4 0 Calma 17 Noroeste 0 928.5 -2.2 28
2019-06-08 16:00:00 23.3 5 Noroeste 14 Oeste 0 929.3 -1.8 29
2019-06-08 15:00:00 23.1 5 Oeste 14 Sudoeste 0 929.8 -1.9 31
2019-06-08 14:00:00 22.4 4 Este 17 Este 0 930.7 -1.5 31
2019-06-08 13:00:00 20.9 6 Este 21 Este 0 931.1 -1.6 35
2019-06-08 12:00:00 18.7 7 Este 22 Nordeste 0 931.7 -1.1 40
2019-06-08 11:00:00 17 8 Nordeste 20 Este 0 932.2 -0.9 46
2019-06-08 10:00:00 14.7 8 Este 17 Nordeste 0 932.7 -0.5 53
2019-06-08 09:00:00 11.3 4 Nordeste 14 Nordeste 0 932.8 -0.3 66
2019-06-08 08:00:00 7.6 2 Este 8 Este 0 933.1 0.1 78
2019-06-08 07:00:00 7.3 4 Este 9 Este 0 933.2 0 75
2019-06-08 06:00:00 7.7 3 Este 10 Este 0 933.1 0 73
2019-06-08 05:00:00 8.6 4 Nordeste 9 Este 0 933 -0.3 70
2019-06-08 04:00:00 9.4 4 Este 10 Nordeste 0 933.2 0 65
2019-06-08 03:00:00 10.2 4 Nordeste 10 Norte 0 933.1 0.1 65
2019-06-08 02:00:00 10.8 0 Calma 11 Noroeste 0 933.3 0.9 62
2019-06-08 01:00:00 11.7 3 Oeste 13 Noroeste 0 933.2 1.3 58
2019-06-08 00:00:00 13.4 5 Noroeste 13 Oeste 0 933 1.5 50
2019-06-07 23:00:00 14.4 4 Noroeste 12 Norte 0 932.4 1.2 46
2019-06-07 22:00:00 15.3 6 Oeste 16 Oeste 0 931.9 1.1 41
2019-06-07 21:00:00 16.2 5 Noroeste 19 Oeste 0 931.5 0.9 37
2019-06-07 20:00:00 17.5 5 Oeste 19 Oeste 0 931.2 0.6 36
2019-06-07 19:00:00 18.2 8 Oeste 21 Oeste 0 930.8 0.2 36
2019-06-07 18:00:00 17.8 6 Oeste 23 Oeste 0 930.6 0.3 37
2019-06-07 17:00:00 18.2 11 Sudoeste 23 Sudoeste 0 930.6 0.4 37
2019-06-07 16:00:00 17.5 12 Oeste 24 Oeste 0 930.6 0.6 39
2019-06-07 15:00:00 16 9 Oeste 29 Sudoeste 0 930.3 0.7 43
2019-06-07 14:00:00 15.7 12 Oeste 30 Oeste 0 930.2 1.1 45
2019-06-07 13:00:00 14.3 9 Sudoeste 30 Sudoeste 0 930 1.5 52
2019-06-07 12:00:00 13.2 12 Oeste 24 Sudoeste 0 929.6 1.9 58
2019-06-07 11:00:00 11.4 12 Oeste 26 Oeste 0 929.1 2.3 64
2019-06-07 10:00:00 10.6 9 Oeste 28 Sudoeste 0 928.5 2.6 71
2019-06-07 09:00:00 9.3 8 Oeste 24 Oeste 0 927.7 2.7 82
2019-06-07 08:00:00 8.4 10 Sudoeste 26 Sudoeste 0 926.8 2.3 87
2019-06-07 07:00:00 8.4 11 Sudoeste 26 Sudoeste 0 925.9 1.9 87
2019-06-07 06:00:00 8.2 10 Sudoeste 29 Sudoeste 0 925 1.6 90
2019-06-07 05:00:00 8.1 12 Sudoeste 27 Sudoeste 0 924.5 1.9 90
2019-06-07 04:00:00 8.1 10 Sudoeste 28 Sudoeste 0 924 1.9 90
2019-06-07 03:00:00 8.4 13 Sudoeste 35 Sudoeste 0 923.4 1.9 90
2019-06-07 02:00:00 9 15 Sudoeste 36 Sudoeste 0 922.6 1.6 91
2019-06-07 01:00:00 9.7 13 Sudoeste 32 Sudoeste 0.4 922.1 3.1 91
2019-06-07 00:00:00 10.1 12 Oeste 42 Sudoeste 0.5 921.5 2.8 93
2019-06-06 23:00:00 11.1 14 Oeste 53 Sudoeste 1.3 921 2.3 96
2019-06-06 22:00:00 14.8 19 Sur 52 Sur 0 919 0.2 71
2019-06-06 21:00:00 16.5 24 Sur 64 Sur 0 918.7 -0.5 58
2019-06-06 20:00:00 18.1 24 Sur 55 Sur 0 918.7 -1.2 49
2019-06-06 19:00:00 19.9 25 Sur 63 Sur 0 918.8 -1.6 45
2019-06-06 18:00:00 19.3 28 Sur 54 Sudoeste 0 919.2 -2.3 45
2019-06-06 17:00:00 20.1 25 Sur 50 Sur 0 919.9 -2.3 42
2019-06-06 16:00:00 19.6 20 Sur 42 Sur 0 920.4 -2.8 41
2019-06-06 15:00:00 18.2 21 Sur 44 Sudoeste 0 921.5 -2 40
2019-06-06 14:00:00 18.6 17 Sur 43 Sur 0 922.2 -1.9 40
2019-06-06 13:00:00 17.8 16 Sur 36 Sur 0 923.2 -1.6 42
2019-06-06 12:00:00 16.9 8 Sur 29 Sudeste 0 923.5 -2 49
2019-06-06 11:00:00 14.4 3 Sur 13 Sudeste 0 924.1 -1.6 59
2019-06-06 10:00:00 12.3 4 Sudeste 14 Sudeste 0 924.8 -0.8 67
2019-06-06 09:00:00 9.5 0 Calma 9 Sur 0 925.5 -0.5 78
2019-06-06 08:00:00 7.5 4 Sudoeste 7 Sudoeste 0 925.7 -0.3 82
2019-06-06 07:00:00 7 0 Calma 6 Sudoeste 0 925.6 -0.7 79
2019-06-06 06:00:00 7.5 4 Sudoeste 7 Sudoeste 0 926 -0.4 77
2019-06-06 05:00:00 7.9 4 Sur 8 Oeste 0 926 -0.6 71
2019-06-06 04:00:00 8.8 5 Oeste 11 Oeste 0 926.3 -0.7 67
2019-06-06 03:00:00 9.4 6 Oeste 12 Sudoeste 0 926.4 -0.3 67
2019-06-06 02:00:00 10.1 3 Oeste 19 Sudoeste 0 926.6 0.4 64
2019-06-06 01:00:00 11.3 9 Oeste 20 Oeste 0 927 1.3 58
2019-06-06 00:00:00 12.7 11 Oeste 24 Oeste 0 926.7 1.2 53
2019-06-05 23:00:00 13.6 10 Oeste 22 Oeste 0 926.2 0.8 52
2019-06-05 22:00:00 14.1 11 Oeste 26 Oeste 0 925.7 0.5 51
2019-06-05 21:00:00 15.2 13 Oeste 31 Sudoeste 0 925.5 0.4 49
2019-06-05 20:00:00 16 13 Oeste 37 Sudoeste 0 925.4 0.2 48
2019-06-05 19:00:00 16.7 16 Oeste 34 Oeste 0 925.2 -0.4 45
2019-06-05 18:00:00 18.8 11 Oeste 38 Oeste 0 925.1 -0.7 42
2019-06-05 17:00:00 18.8 14 Oeste 37 Sudoeste 0 925.2 -0.9 40
2019-06-05 16:00:00 17.7 16 Oeste 39 Oeste 0 925.6 -0.6 45
2019-06-05 15:00:00 17.6 15 Oeste 37 Oeste 0 925.8 -0.4 45
2019-06-05 14:00:00 16 14 Oeste 32 Oeste 0 926.1 0.2 48
2019-06-05 13:00:00 14.6 16 Oeste 34 Oeste 0 926.2 0.6 53
2019-06-05 12:00:00 13.8 13 Oeste 33 Sudoeste 0 926.2 1.1 56
2019-06-05 11:00:00 13.3 15 Oeste 35 Oeste 0 925.9 1.5 61
2019-06-05 10:00:00 11.7 18 Oeste 35 Oeste 0 925.6 1.9 70
2019-06-05 09:00:00 10.5 18 Oeste 33 Noroeste 0 925.1 1.8 78
2019-06-05 08:00:00 8.8 12 Oeste 25 Sudoeste 0 924.4 1.1 87
2019-06-05 07:00:00 8.1 9 Oeste 24 Sudoeste 0 923.7 0.5 87
2019-06-05 06:00:00 8.6 10 Oeste 24 Oeste 0 923.3 0 85
2019-06-05 05:00:00 9.6 9 Oeste 26 Oeste 0 923.3 0.3 80
2019-06-05 04:00:00 10.6 12 Oeste 34 Oeste 0 923.2 0.2 72
2019-06-05 03:00:00 11.6 15 Oeste 31 Oeste 0 923.3 0.7 69
2019-06-05 02:00:00 12.3 14 Oeste 31 Oeste 0 923 0.7 67
2019-06-05 01:00:00 13.3 14 Oeste 33 Oeste 0 923 0.9 64
2019-06-05 00:00:00 14.7 13 Oeste 30 Oeste 0 922.6 0.6 57
2019-06-04 23:00:00 16 11 Oeste 29 Oeste 0 922.3 0.1 55
2019-06-04 22:00:00 16.5 15 Oeste 31 Oeste 0 922.1 -0.2 57
2019-06-04 21:00:00 17.8 10 Oeste 30 Oeste 0 922 -0.7 56
2019-06-04 20:00:00 18.4 13 Oeste 30 Oeste 0 922.2 0 57
2019-06-04 19:00:00 18.5 12 Oeste 37 Oeste 0 922.3 0.2 58
2019-06-04 18:00:00 18.4 18 Oeste 40 Oeste 0 922.7 0.1 61
2019-06-04 17:00:00 21.5 17 Oeste 37 Sudoeste 0 922.2 -1.1 52
2019-06-04 16:00:00 23.2 14 Sudoeste 36 Oeste 0 922.1 -1.7 44
2019-06-04 15:00:00 23.4 13 Sudoeste 37 Noroeste 0 922.6 -1.6 45
2019-06-04 14:00:00 21.9 13 Sudoeste 34 Sudoeste 0 923.3 -1.2 49
2019-06-04 13:00:00 20.2 10 Sudoeste 32 Sudoeste 0 923.8 -1.1 55
2019-06-04 12:00:00 19.1 13 Sudoeste 36 Sudoeste 0 924.2 -0.4 58
2019-06-04 11:00:00 17.7 14 Oeste 31 Oeste 0 924.5 0.3 64
2019-06-04 10:00:00 16 13 Sudoeste 31 Sudoeste 0 924.9 1.1 71
2019-06-04 09:00:00 14.5 12 Oeste 32 Sudoeste 0 924.6 0.9 79
2019-06-04 08:00:00 13.3 13 Oeste 27 Sudoeste 0 924.2 0.5 86
2019-06-04 07:00:00 13.7 11 Oeste 25 Sudoeste 0 923.8 -0.1 87
2019-06-04 06:00:00 13.8 12 Sudoeste 22 Sudoeste 0 923.7 -0.6 89
2019-06-04 05:00:00 14.5 7 Oeste 17 Sudoeste 0 923.7 -1.4 87
2019-06-04 04:00:00 15.2 8 Oeste 22 Oeste 0 923.9 -1.8 84
2019-06-04 03:00:00 16 9 Sudoeste 20 Sudoeste 0 924.3 -1.5 79
2019-06-04 02:00:00 17.4 8 Sudoeste 18 Sudoeste 0 925.1 -0.3 72
2019-06-04 01:00:00 18.7 8 Sudoeste 22 Oeste 0 925.7 0.8 67
2019-06-04 00:00:00 20.3 11 Sudoeste 29 Sudoeste 0 925.8 1.4 60
2019-06-03 23:00:00 22.2 10 Oeste 25 Oeste 0 925.4 1 57
2019-06-03 22:00:00 24.4 12 Oeste 29 Sudoeste 0 924.9 0.4 51
2019-06-03 21:00:00 27.1 13 Sur 33 Sur 0 924.4 -0.6 32
2019-06-03 20:00:00 28.8 14 Sur 35 Sudoeste 0 924.4 -0.8 28
2019-06-03 19:00:00 29.9 12 Sudoeste 33 Sudoeste 0 924.5 -1.4 29
2019-06-03 18:00:00 30.7 13 Sudoeste 38 Sudoeste 0 925 -1.5 30
2019-06-03 17:00:00 30 16 Oeste 35 Sudoeste 0 925.2 -2.1 30
2019-06-03 16:00:00 30 12 Sudoeste 31 Sudoeste 0 925.9 -2 28
2019-06-03 15:00:00 29.6 15 Sudoeste 31 Oeste 0 926.5 -1.8 29
2019-06-03 14:00:00 28.3 7 Sudoeste 24 Sur 0 927.3 -1.2 31
2019-06-03 13:00:00 26.1 6 Sudoeste 20 Sudoeste 0 927.9 -1 37
2019-06-03 12:00:00 23.9 3 Oeste 13 Sudoeste 0 928.3 -0.7 44
2019-06-03 11:00:00 21.7 4 Oeste 13 Oeste 0 928.5 -0.2 49
2019-06-03 10:00:00 19.6 6 Oeste 12 Oeste 0 928.9 0.4 57
2019-06-03 09:00:00 18 5 Sudoeste 10 Oeste 0 929 0.7 60
2019-06-03 08:00:00 17.2 4 Sudoeste 14 Oeste 0 928.7 0.5 60
2019-06-03 07:00:00 17.6 5 Oeste 10 Noroeste 0 928.5 0 56
2019-06-03 06:00:00 18.4 4 Oeste 12 Sudoeste 0 928.3 -0.6 52
2019-06-03 05:00:00 19.3 6 Oeste 10 Sudoeste 0 928.2 -0.9 50
2019-06-03 04:00:00 19.6 5 Oeste 9 Noroeste 0 928.5 -0.8 49
2019-06-03 03:00:00 19.8 4 Sudoeste 8 Oeste 0 928.9 -0.2 47
2019-06-03 02:00:00 20.9 4 Oeste 10 Oeste 0 929.1 0.3 45
2019-06-03 01:00:00 21.6 7 Oeste 13 Oeste 0 929.3 1 43
2019-06-03 00:00:00 22.8 7 Oeste 15 Oeste 0 929.1 1.2 40
2019-06-02 23:00:00 24.1 9 Oeste 17 Oeste 0 928.8 1.3 37
2019-06-02 22:00:00 25.5 5 Oeste 23 Oeste 0 928.3 0.9 34
2019-06-02 21:00:00 27.6 12 Oeste 27 Oeste 0 927.9 0.3 32
2019-06-02 20:00:00 28.9 14 Oeste 28 Oeste 0 927.5 -0.2 30
2019-06-02 19:00:00 30.3 11 Oeste 30 Sudoeste 0 927.4 -0.6 29
2019-06-02 18:00:00 30.4 11 Oeste 28 Sudoeste 0 927.6 -0.9 29
2019-06-02 17:00:00 30.8 15 Oeste 34 Oeste 0 927.7 -1.6 28
2019-06-02 16:00:00 31.9 13 Sudoeste 34 Sudoeste 0 928 -1.8 28
2019-06-02 15:00:00 30.9 12 Oeste 31 Sudoeste 0 928.5 -1.7 29
2019-06-02 14:00:00 31 10 Sudoeste 28 Sudoeste 0 929.3 -0.9 29
2019-06-02 13:00:00 29.8 6 Oeste 17 Sudoeste 0 929.8 -0.5 31
2019-06-02 12:00:00 28.1 6 Oeste 17 Sudoeste 0 930.2 0 32
2019-06-02 11:00:00 26.3 6 Oeste 13 Sudoeste 0 930.2 0.1 36
2019-06-02 10:00:00 23.5 4 Oeste 12 Oeste 0 930.3 0.2 44
2019-06-02 09:00:00 19.7 0 Calma 4 Este 0 930.2 0.6 53
2019-06-02 08:00:00 17 0 Calma 2 Nordeste 0 930.1 0.4 61
2019-06-02 07:00:00 16.3 0 Calma 6 Este 0 930.1 0.3 58
2019-06-02 06:00:00 17.5 3 Este 6 Este 0 929.6 -0.3 58
2019-06-02 05:00:00 17.8 2 Este 7 Este 0 929.7 -0.4 57
2019-06-02 04:00:00 19.2 0 Calma 8 Oeste 0 929.8 -0.2 52
2019-06-02 03:00:00 20.5 4 Sudoeste 9 Sudoeste 0 929.9 -0.2 46
2019-06-02 02:00:00 21.3 3 Sudoeste 7 Oeste 0 930.1 0.4 46
2019-06-02 01:00:00 23 5 Oeste 12 Oeste 0 930 1.3 42
2019-06-02 00:00:00 24.2 5 Oeste 13 Oeste 0 930.1 1.7 39
2019-06-01 23:00:00 26.3 9 Oeste 19 Sudoeste 0 929.7 1.4 34
2019-06-01 22:00:00 28.3 5 Oeste 11 Sudoeste 0 928.7 0.4 30
2019-06-01 21:00:00 30.4 8 Oeste 18 Sudoeste 0 928.4 -0.2 28
2019-06-01 20:00:00 31.7 5 Sudoeste 26 Sudoeste 0 928.3 -0.7 26
2019-06-01 19:00:00 32.7 6 Oeste 29 Sudoeste 0 928.3 -1.3 26
2019-06-01 18:00:00 33.7 10 Oeste 22 Oeste 0 928.6 -1.4 25
2019-06-01 17:00:00 33.7 8 Sudoeste 21 Oeste 0 929 -1.8 25
2019-06-01 16:00:00 33.1 3 Sudeste 21 Noroeste 0 929.6 -1.7 26
2019-06-01 15:00:00 32.4 2 Sudeste 18 Oeste 0 930 -1.6 26
2019-06-01 14:00:00 31.7 4 Nordeste 21 Nordeste 0 930.8 -1 27
2019-06-01 13:00:00 30.7 0 Calma 10 Sudeste 0 931.3 -0.6 28
2019-06-01 12:00:00 29.5 3 Sudoeste 10 Sudoeste 0 931.6 -0.3 33
2019-06-01 11:00:00 26 0 Calma 8 Este 0 931.8 0 43
2019-06-01 10:00:00 22.1 4 Sudeste 7 Sudeste 0 931.9 0.5 51
2019-06-01 09:00:00 17 3 Este 9 Este 0 931.9 0.7 61
2019-06-01 08:00:00 13.2 4 Este 7 Este 0 931.8 0.5 70
2019-06-01 07:00:00 13 0 Calma 5 Este 0 931.4 0.2 72
2019-06-01 06:00:00 13.7 0 Calma 6 Este 0 931.2 -0.1 61
2019-06-01 05:00:00 14.8 4 Este 12 Oeste 0 931.3 -0.1 57
2019-06-01 04:00:00 15.7 3 Este 5 Este 0 931.2 -0.4 56
2019-06-01 03:00:00 16.5 0 Calma 14 Nordeste 0 931.3 -0.3 49
2019-06-01 02:00:00 17.6 0 Calma 5 Noroeste 0 931.4 -0.1 47
2019-06-01 01:00:00 19 3 Oeste 5 Sudoeste 0 931.6 0.6 45
2019-06-01 00:00:00 21 0 Calma 2 Este 0 931.6 0.8 38
2019-05-31 23:00:00 23.8 0 Calma 9 Este 0 931.5 0.7 31
2019-05-31 22:00:00 27.9 2 Norte 11 Nordeste 0 931 0 25
2019-05-31 21:00:00 29.5 5 Norte 13 Nordeste 0 930.8 -0.5 24
2019-05-31 20:00:00 30.8 5 Oeste 16 Nordeste 0 930.8 -0.9 24
2019-05-31 19:00:00 31.8 3 Norte 15 Norte 0 931 -1.3 24
2019-05-31 18:00:00 32.2 3 Norte 18 Nordeste 0 931.3 -1.5 25
2019-05-31 17:00:00 31.3 6 Noroeste 18 Noroeste 0 931.7 -1.5 25
2019-05-31 16:00:00 31.1 5 Nordeste 19 Nordeste 0 932.3 -1.4 27
2019-05-31 15:00:00 31.1 3 Sur 17 Nordeste 0 932.8 -1.1 28
2019-05-31 14:00:00 30.2 3 Nordeste 18 Este 0 933.2 -1.1 30
2019-05-31 13:00:00 28.4 6 Este 20 Este 0 933.7 -0.8 34
2019-05-31 12:00:00 26.5 8 Nordeste 20 Nordeste 0 933.9 -0.5 36
2019-05-31 11:00:00 24.2 5 Este 12 Este 0 934.3 -0.1 45
2019-05-31 10:00:00 20.5 5 Este 12 Sudeste 0 934.5 0.6 52
2019-05-31 09:00:00 16.5 4 Este 9 Este 0 934.4 0.8 61
2019-05-31 08:00:00 12.9 0 Calma 5 Este 0 934.4 0.7 70
2019-05-31 07:00:00 12.3 0 Calma 4 Sudoeste 0 933.9 0 73
2019-05-31 06:00:00 13.3 0 Calma 4 Este 0 933.6 -0.8 72
2019-05-31 05:00:00 14.1 2 Este 6 Este 0 933.7 -0.9 68
2019-05-31 04:00:00 15.6 0 Calma 6 Este 0 933.9 -0.6 62
2019-05-31 03:00:00 16.6 0 Calma 9 Nordeste 0 934.4 -0.1 54
2019-05-31 02:00:00 18.4 3 Este 10 Nordeste 0 934.6 0.3 45
2019-05-31 01:00:00 20.1 5 Este 11 Norte 0 934.5 1 42
2019-05-31 00:00:00 22 4 Nordeste 18 Nordeste 0 934.5 1.3 37
2019-05-30 23:00:00 23.7 7 Nordeste 23 Norte 0 934.3 1.2 32
2019-05-30 22:00:00 25.9 7 Nordeste 18 Nordeste 0 933.5 0.2 29
2019-05-30 21:00:00 27.6 8 Nordeste 21 Este 0 933.2 -0.5 27
2019-05-30 20:00:00 28.7 6 Nordeste 22 Nordeste 0 933.1 -1 26
2019-05-30 19:00:00 29.4 5 Nordeste 25 Nordeste 0 933.3 -1.3 26
2019-05-30 18:00:00 30.1 8 Este 22 Nordeste 0 933.7 -1.2 27
2019-05-30 17:00:00 29.8 10 Este 33 Este 0 934.1 -1.5 27
2019-05-30 16:00:00 29.5 10 Este 26 Este 0 934.6 -1.4 27
2019-05-30 15:00:00 28.2 8 Nordeste 27 Este 0 934.9 -1.5 29
2019-05-30 14:00:00 26.4 8 Este 25 Este 0 935.6 -1 33
2019-05-30 13:00:00 24.8 10 Este 29 Este 0 936 -0.9 38
2019-05-30 12:00:00 22.9 9 Este 22 Este 0 936.4 -0.4 45
2019-05-30 11:00:00 20.3 8 Este 17 Este 0 936.6 0.1 53
2019-05-30 10:00:00 17.4 10 Nordeste 19 Nordeste 0 936.9 0.8 62
2019-05-30 09:00:00 14.1 5 Este 13 Este 0 936.8 1.1 73
2019-05-30 08:00:00 11.2 3 Este 9 Sudeste 0 936.5 0.9 81
2019-05-30 07:00:00 11 2 Este 5 Este 0 936.1 0.4 82
2019-05-30 06:00:00 11.4 2 Este 8 Este 0 935.7 -0.2 77
2019-05-30 05:00:00 12.1 2 Este 8 Nordeste 0 935.6 -0.7 76
2019-05-30 04:00:00 13.1 4 Nordeste 13 Nordeste 0 935.7 -0.3 69
2019-05-30 03:00:00 13.6 5 Nordeste 12 Nordeste 0 935.9 0.1 66
2019-05-30 02:00:00 14.6 6 Este 12 Este 0 936.3 1.1 61
2019-05-30 01:00:00 15.8 4 Este 15 Nordeste 0 936 1.6 58
2019-05-30 00:00:00 17.3 6 Nordeste 13 Este 0 935.8 1.5 54
2019-05-29 23:00:00 18.6 5 Este 15 Este 0 935.2 1.3 49
2019-05-29 22:00:00 20.3 4 Nordeste 16 Este 0 934.4 0.6 44
2019-05-29 21:00:00 22.3 9 Nordeste 25 Nordeste 0 934.3 0.4 40
2019-05-29 20:00:00 23.6 13 Nordeste 29 Nordeste 0 933.9 -0.1 36
2019-05-29 19:00:00 25 10 Nordeste 29 Nordeste 0 933.8 -0.7 35
2019-05-29 18:00:00 25 11 Nordeste 30 Nordeste 0 933.9 -0.8 36
2019-05-29 17:00:00 25.1 13 Nordeste 30 Nordeste 0 934 -1.2 38
2019-05-29 16:00:00 24.4 12 Este 27 Nordeste 0 934.5 -1.1 39
2019-05-29 15:00:00 23.3 10 Nordeste 27 Este 0 934.7 -0.9 42
2019-05-29 14:00:00 21.3 10 Este 27 Nordeste 0 935.2 -0.4 45
2019-05-29 13:00:00 19.6 10 Este 27 Nordeste 0 935.6 -0.2 48
2019-05-29 12:00:00 18 11 Este 28 Nordeste 0 935.6 0.2 51
2019-05-29 11:00:00 16 14 Este 34 Este 0 935.6 0.4 56
2019-05-29 10:00:00 13.9 13 Este 30 Nordeste 0 935.8 1.1 62
2019-05-29 09:00:00 11.6 13 Nordeste 28 Nordeste 0 935.4 1 69
2019-05-29 08:00:00 8.6 6 Este 15 Este 0 935.2 1 77
2019-05-29 07:00:00 8.2 6 Este 15 Este 0 934.7 0.6 76
2019-05-29 06:00:00 8.8 6 Este 17 Este 0 934.4 0.5 73
2019-05-29 05:00:00 9.4 7 Este 22 Nordeste 0 934.2 0.3 70
2019-05-29 04:00:00 10.3 9 Nordeste 24 Nordeste 0 934.1 0.7 65
2019-05-29 03:00:00 11.2 6 Nordeste 23 Nordeste 0 933.9 1.4 59
2019-05-29 02:00:00 12.5 10 Nordeste 23 Nordeste 0 933.9 2.4 53
2019-05-29 01:00:00 13.9 13 Nordeste 26 Nordeste 0 933.4 3.3 52
2019-05-29 00:00:00 15.4 11 Nordeste 32 Nordeste 0 932.5 2.9 51
2019-05-28 23:00:00 17.2 13 Nordeste 27 Este 0 931.5 2.3 45
2019-05-28 22:00:00 20.6 8 Nordeste 23 Nordeste 0 930.1 1 36
2019-05-28 21:00:00 22.5 12 Nordeste 27 Nordeste 0 929.6 0.2 33
2019-05-28 20:00:00 23.4 7 Nordeste 23 Nordeste 0 929.2 -0.2 32
2019-05-28 19:00:00 24.5 6 Nordeste 22 Nordeste 0 929.1 -0.4 32
2019-05-28 18:00:00 24.4 5 Norte 24 Norte 0 929.4 -0.4 32
2019-05-28 17:00:00 24.6 7 Nordeste 28 Nordeste 0 929.4 -0.7 33
2019-05-28 16:00:00 22.7 8 Norte 29 Nordeste 0 929.5 -0.8 35
2019-05-28 15:00:00 21.6 7 Nordeste 25 Este 0 929.8 -0.7 36
2019-05-28 14:00:00 21.3 8 Nordeste 29 Este 0 930.1 -0.3 40
2019-05-28 13:00:00 19.1 9 Nordeste 28 Este 0 930.3 0.1 44
2019-05-28 12:00:00 17.2 10 Nordeste 28 Nordeste 0 930.5 0.7 49
2019-05-28 11:00:00 15.7 11 Este 25 Este 0 930.4 1.1 56
2019-05-28 10:00:00 13.8 9 Este 27 Nordeste 0 930.2 1.5 64
2019-05-28 09:00:00 11.5 14 Nordeste 29 Nordeste 0 929.8 1.6 72
2019-05-28 08:00:00 9.8 8 Nordeste 21 Este 0 929.3 1.5 77
2019-05-28 07:00:00 9.9 8 Nordeste 20 Nordeste 0 928.7 1 77
2019-05-28 06:00:00 10.7 10 Nordeste 24 Nordeste 0 928.2 0.5 76
2019-05-28 05:00:00 11.4 9 Nordeste 20 Nordeste 0 927.8 0.4 73
2019-05-28 04:00:00 12.2 11 Nordeste 21 Este 0 927.7 0.3 70
2019-05-28 03:00:00 13.3 9 Nordeste 23 Nordeste 0 927.7 1.1 70
2019-05-28 02:00:00 14.7 13 Nordeste 26 Este 0 927.4 1.8 67
2019-05-28 01:00:00 16.6 12 Nordeste 28 Nordeste 0 927.4 2.5 60
2019-05-28 00:00:00 19.7 11 Nordeste 24 Nordeste 0 926.6 1.7 49
2019-05-27 23:00:00 22.4 5 Noroeste 22 Oeste 0 925.6 0.9 45
2019-05-27 22:00:00 23.8 3 Norte 15 Nordeste 0 924.9 0.1 38
2019-05-27 21:00:00 24.7 4 Norte 13 Norte 0 924.9 0 37
2019-05-27 20:00:00 25.5 2 Norte 17 Noroeste 0 924.7 -0.6 36
2019-05-27 19:00:00 27.2 4 Nordeste 19 Norte 0 924.8 -1.1 36
2019-05-27 18:00:00 26.5 3 Norte 22 Noroeste 0 924.9 -1.5 36
2019-05-27 17:00:00 26.4 4 Oeste 21 Noroeste 0 925.3 -1.7 38
2019-05-27 16:00:00 25.4 8 Noroeste 20 Noroeste 0 925.9 -1.4 39
2019-05-27 15:00:00 24.3 8 Noroeste 19 Norte 0 926.4 -1.4 41
2019-05-27 14:00:00 24.4 4 Norte 17 Oeste 0 927 -1.2 42
2019-05-27 13:00:00 23.4 3 Norte 17 Noroeste 0 927.3 -1.1 44
2019-05-27 12:00:00 21.9 6 Nordeste 17 Norte 0 927.8 -0.7 46
2019-05-27 11:00:00 20.6 8 Nordeste 19 Nordeste 0 928.2 -0.3 51
2019-05-27 10:00:00 18.8 10 Este 21 Nordeste 0 928.4 0.4 54
2019-05-27 09:00:00 15.8 5 Este 16 Nordeste 0 928.5 0.6 65
2019-05-27 08:00:00 13.4 4 Nordeste 10 Nordeste 0 928.5 0.8 74
2019-05-27 07:00:00 13.3 2 Nordeste 6 Este 0 928 -0.1 73
2019-05-27 06:00:00 13.8 3 Este 13 Este 0 927.9 -0.4 69
2019-05-27 05:00:00 14.4 2 Sudeste 8 Nordeste 0 927.7 -1.1 68
2019-05-27 04:00:00 14.8 3 Este 14 Nordeste 0 928.1 -0.7 66
2019-05-27 03:00:00 15.3 6 Este 13 Este 0 928.3 -0.6 64
2019-05-27 02:00:00 16.3 0 Calma 13 Nordeste 0 928.8 -0.1 62
2019-05-27 01:00:00 17.5 3 Este 5 Este 0 928.8 0.4 61
2019-05-27 00:00:00 19.2 4 Sur 6 Este 0 928.9 0.4 48
2019-05-26 23:00:00 20.8 0 Calma 5 Este 0 928.9 0.3 45
2019-05-26 22:00:00 22.9 2 Este 9 Este 0 928.4 -0.6 40
2019-05-26 21:00:00 24.6 4 Este 17 Nordeste 0 928.5 -0.9 36
2019-05-26 20:00:00 25.8 5 Nordeste 29 Nordeste 0 928.6 -1.2 33
2019-05-26 19:00:00 26.6 4 Norte 25 Nordeste 0 929 -1.5 33
2019-05-26 18:00:00 26 10 Nordeste 27 Nordeste 0 929.4 -1.6 34
2019-05-26 17:00:00 26 8 Nordeste 28 Nordeste 0 929.8 -1.7 36
2019-05-26 16:00:00 25 7 Nordeste 23 Noroeste 0 930.5 -1.8 39
2019-05-26 15:00:00 23.7 4 Nordeste 24 Nordeste 0 931 -1.5 41
2019-05-26 14:00:00 21.9 4 Nordeste 21 Nordeste 0 931.5 -1.4 45
2019-05-26 13:00:00 20.3 5 Nordeste 22 Este 0 932.3 -1.1 49
2019-05-26 12:00:00 18.4 4 Nordeste 18 Este 0 932.5 -0.9 56
2019-05-26 11:00:00 16.4 8 Este 21 Nordeste 0 932.9 -0.4 62
2019-05-26 10:00:00 14 8 Nordeste 27 Nordeste 0 933.4 0.2 69
2019-05-26 09:00:00 11.5 5 Este 14 Nordeste 0 933.4 0.5 76
2019-05-26 08:00:00 9.4 6 Este 12 Este 0 933.3 0.4 81
2019-05-26 07:00:00 9.3 5 Este 14 Este 0 933.2 0.4 80
2019-05-26 06:00:00 10 5 Este 12 Sudeste 0 932.9 0.1 77
2019-05-26 05:00:00 10.7 4 Este 21 Este 0 932.9 -0.1 75
2019-05-26 04:00:00 11.3 6 Este 14 Este 0 932.8 0 72
2019-05-26 03:00:00 12.2 6 Nordeste 14 Nordeste 0 932.8 0.4 67
2019-05-26 02:00:00 13.3 4 Este 23 Nordeste 0 933 1 61
2019-05-26 01:00:00 14.7 10 Nordeste 26 Nordeste 0 932.8 1.5 56
2019-05-26 00:00:00 16.2 10 Nordeste 20 Nordeste 0 932.4 1.4 53
2019-05-25 23:00:00 17.5 5 Nordeste 10 Este 0 932 1.2 47
2019-05-25 22:00:00 19.1 3 Este 15 Nordeste 0 931.3 0.4 41
2019-05-25 21:00:00 21 7 Nordeste 21 Nordeste 0 931 -0.1 35
2019-05-25 20:00:00 22 7 Nordeste 26 Nordeste 0 930.8 -0.3 34
2019-05-25 19:00:00 23 7 Nordeste 28 Nordeste 0 930.9 -0.3 36
2019-05-25 18:00:00 22.8 10 Nordeste 28 Nordeste 0 931.1 -0.6 34
2019-05-25 17:00:00 22.8 8 Nordeste 25 Nordeste 0 931.1 -1.2 35
2019-05-25 16:00:00 21.7 11 Nordeste 25 Nordeste 0 931.2 -1.6 38
2019-05-25 15:00:00 21.2 12 Este 26 Este 0 931.7 -1.3 41
2019-05-25 14:00:00 20 13 Nordeste 33 Este 0 932.3 -0.9 45
2019-05-25 13:00:00 18.3 11 Nordeste 28 Este 0 932.8 -0.5 49
2019-05-25 12:00:00 16.4 10 Nordeste 30 Este 0 933 0.1 54
2019-05-25 11:00:00 15.1 9 Nordeste 30 Nordeste 0 933.2 0.7 58
2019-05-25 10:00:00 13.9 10 Este 28 Nordeste 0 933.3 1.2 67
2019-05-25 09:00:00 11.7 9 Nordeste 19 Nordeste 0 932.9 1.1 79
2019-05-25 08:00:00 9 4 Este 10 Nordeste 0 932.5 0.8 89
2019-05-25 07:00:00 8.5 4 Este 12 Este 0 932.1 0.6 89
2019-05-25 06:00:00 9.2 5 Este 19 Nordeste 0 931.8 -0.3 85
2019-05-25 05:00:00 9.7 6 Este 15 Nordeste 0 931.7 -0.4 84
2019-05-25 04:00:00 10.5 6 Nordeste 15 Nordeste 0 931.5 -0.2 81
2019-05-25 03:00:00 10.7 8 Nordeste 19 Nordeste 0 932.1 1 77
2019-05-25 02:00:00 11.6 10 Nordeste 19 Nordeste 0 932.1 1.7 73
2019-05-25 01:00:00 12.7 8 Nordeste 26 Nordeste 0 931.7 2.6 64
2019-05-25 00:00:00 14.1 9 Nordeste 27 Nordeste 0 931.1 2.9 56